This is the latest recevied weather packets stored in our database for station/object KF7SOJ. If no packets are shown the sender has not sent any weather packets the latest 1 day(s).
| Time | Temp. | Humidity | Pressure | Rain* | Wind** | Luminosity | Snow |
|---|---|---|---|---|---|---|---|
| 1778060983 | -1.11° C | 57% | 934.8 hPa | 0 mm | 0.45 m/s, 161° | 0 W/m² | - |
| 1778060681 | -0.56° C | 55% | 934.8 hPa | 0 mm | 1.34 m/s, 249° | 0 W/m² | - |
| 1778060379 | -0.56° C | 56% | 934.9 hPa | 0 mm | 0.89 m/s, 243° | 0 W/m² | - |
| 1778060077 | -0.56° C | 56% | 934.8 hPa | 0 mm | 0.89 m/s, 299° | 0 W/m² | - |
| 1778059774 | 0° C | 55% | 934.8 hPa | 0 mm | 0.45 m/s, 256° | 0 W/m² | - |
| 1778059472 | 0° C | 55% | 934.9 hPa | 0 mm | 0.89 m/s, 239° | 0 W/m² | - |
| 1778059168 | 0° C | 56% | 935 hPa | 0 mm | 0.89 m/s, 223° | 0 W/m² | - |
| 1778058867 | 0° C | 56% | 934.9 hPa | 0 mm | 1.34 m/s, 232° | 0 W/m² | - |
| 1778058563 | 0° C | 57% | 935.1 hPa | 0 mm | 0.89 m/s, 237° | 0 W/m² | - |
| 1778058261 | -0.56° C | 58% | 935 hPa | 0 mm | 0.89 m/s, 225° | 0 W/m² | - |
| 1778057958 | -0.56° C | 58% | 935.2 hPa | 0 mm | 0.89 m/s, 222° | 0 W/m² | - |
| 1778057654 | -1.11° C | 59% | 935.2 hPa | 0 mm | 0.89 m/s, 208° | 0 W/m² | - |
| 1778057350 | -1.67° C | 61% | 935.1 hPa | 0 mm | 1.79 m/s, 222° | 0 W/m² | - |
| 1778057048 | -1.11° C | 58% | 935.1 hPa | 0 mm | 1.34 m/s, 237° | 0 W/m² | - |
| 1778056744 | -0.56° C | 57% | 935.4 hPa | 0 mm | 1.34 m/s, 219° | 0 W/m² | - |
| 1778056441 | -0.56° C | 58% | 935.2 hPa | 0 mm | 0.45 m/s, 196° | 0 W/m² | - |
| 1778056138 | -0.56° C | 58% | 935.2 hPa | 0 mm | 0.45 m/s, 153° | 0 W/m² | - |
| 1778055835 | -0.56° C | 56% | 935.4 hPa | 0 mm | 0.89 m/s, 116° | 0 W/m² | - |
| 1778055531 | 0° C | 54% | 935.5 hPa | 0 mm | 1.34 m/s, 108° | 0 W/m² | - |
| 1778055229 | 1.11° C | 50% | 935.3 hPa | 0 mm | 0.45 m/s, 125° | 0 W/m² | - |
| 1778054927 | 1.67° C | 49% | 935.1 hPa | 0 mm | 0 m/s | 0 W/m² | - |
| 1778054623 | 1.67° C | 49% | 935.2 hPa | 0 mm | 0 m/s | 0 W/m² | - |
| 1778054321 | 1.11° C | 50% | 935.3 hPa | 0 mm | 0 m/s | 0 W/m² | - |
| 1778054018 | 1.11° C | 51% | 935.2 hPa | 0 mm | 0 m/s | 0 W/m² | - |
| 1778053715 | 1.11° C | 51% | 935.2 hPa | 0 mm | 0.45 m/s, 26° | 0 W/m² | - |
* Rain latest hour (hover to see other rain measurements)
** Current wind speed in m/s (hover to see current wind gust speed)